createdAt,value
2022-07-26T00:02:18.545Z,18.73
2022-07-26T00:04:44.952Z,18.66
2022-07-26T00:07:11.176Z,18.64
2022-07-26T00:09:37.435Z,18.58
2022-07-26T00:12:03.657Z,18.57
2022-07-26T00:14:29.931Z,18.56
2022-07-26T00:16:56.210Z,18.58
2022-07-26T00:19:22.504Z,18.60
2022-07-26T00:21:48.741Z,18.61
2022-07-26T00:24:15.007Z,18.60
2022-07-26T00:26:41.278Z,18.59
2022-07-26T00:29:07.891Z,18.59
2022-07-26T00:31:34.427Z,18.57
2022-07-26T00:34:00.728Z,18.58
2022-07-26T00:36:26.937Z,18.57
2022-07-26T00:38:53.196Z,18.59
2022-07-26T00:41:19.412Z,18.62
2022-07-26T00:43:45.662Z,18.62
2022-07-26T00:46:11.962Z,18.60
2022-07-26T00:48:38.259Z,18.60
2022-07-26T00:51:04.551Z,18.59
2022-07-26T00:53:30.781Z,18.60
2022-07-26T00:55:57.020Z,18.62
2022-07-26T00:58:23.237Z,18.58
2022-07-26T01:00:49.528Z,18.56
2022-07-26T01:03:15.807Z,18.50
2022-07-26T01:05:42.051Z,18.50
2022-07-26T01:08:08.279Z,18.47
2022-07-26T01:10:34.529Z,18.46
2022-07-26T01:13:00.759Z,18.44
2022-07-26T01:15:27.017Z,18.42
2022-07-26T01:17:53.233Z,18.42
2022-07-26T01:20:19.495Z,18.40
2022-07-26T01:22:45.725Z,18.42
2022-07-26T01:25:11.972Z,18.44
2022-07-26T01:27:38.213Z,18.47
2022-07-26T01:30:04.524Z,18.48
2022-07-26T01:32:30.759Z,18.49
2022-07-26T01:34:56.998Z,18.48
2022-07-26T01:37:23.220Z,18.45
2022-07-26T01:39:49.487Z,18.42
2022-07-26T01:42:15.700Z,18.44
2022-07-26T01:44:41.999Z,18.45
2022-07-26T01:47:08.231Z,18.49
2022-07-26T01:49:34.583Z,18.52
2022-07-26T01:52:00.876Z,18.56
2022-07-26T01:54:27.252Z,18.55
2022-07-26T01:56:53.512Z,18.58
2022-07-26T01:59:19.774Z,18.59
2022-07-26T02:01:46.028Z,18.60
2022-07-26T02:04:12.630Z,18.59
2022-07-26T02:06:39.013Z,18.57
2022-07-26T02:09:07.502Z,18.55
2022-07-26T02:11:34.021Z,18.53
2022-07-26T02:14:00.254Z,18.50
2022-07-26T02:16:26.601Z,18.49
2022-07-26T02:18:52.967Z,18.48
2022-07-26T02:21:19.300Z,18.46
2022-07-26T02:23:45.663Z,18.44
2022-07-26T02:26:11.915Z,18.41
2022-07-26T02:28:38.196Z,18.40
2022-07-26T02:31:04.723Z,18.37
2022-07-26T02:33:31.267Z,18.37
2022-07-26T02:35:57.606Z,18.34
2022-07-26T02:38:25.118Z,18.28
2022-07-26T02:40:51.593Z,18.25
2022-07-26T02:43:17.881Z,18.23
2022-07-26T02:45:44.193Z,18.22
2022-07-26T02:48:27.670Z,18.20
2022-07-26T02:50:54.501Z,18.17
2022-07-26T02:53:20.762Z,18.17
2022-07-26T02:55:47.151Z,18.15
2022-07-26T02:58:13.388Z,18.11
2022-07-26T03:00:39.649Z,18.07
2022-07-26T03:03:06.240Z,18.05
2022-07-26T03:05:32.626Z,18.01
2022-07-26T03:07:58.924Z,18.02
2022-07-26T03:10:25.381Z,17.98
2022-07-26T03:12:51.608Z,17.98
2022-07-26T03:15:17.956Z,17.94
2022-07-26T03:17:44.411Z,17.90
2022-07-26T03:20:10.884Z,17.90
2022-07-26T03:22:37.195Z,17.84
2022-07-26T03:25:03.435Z,17.82
2022-07-26T03:27:29.679Z,17.79
2022-07-26T03:29:55.973Z,17.76
2022-07-26T03:32:22.289Z,17.72
2022-07-26T03:34:48.614Z,17.70
2022-07-26T03:37:14.953Z,17.70
2022-07-26T03:39:41.377Z,17.67
2022-07-26T03:42:07.814Z,17.65
2022-07-26T03:44:34.041Z,17.66
2022-07-26T03:47:00.373Z,17.65
2022-07-26T03:49:26.697Z,17.64
2022-07-26T03:52:00.378Z,17.62
2022-07-26T03:54:26.639Z,17.61
2022-07-26T03:56:52.929Z,17.60
2022-07-26T03:59:19.210Z,17.58
2022-07-26T04:01:45.535Z,17.57
2022-07-26T04:04:12.240Z,17.56
2022-07-26T04:06:38.769Z,17.51
2022-07-26T04:09:06.094Z,17.51
2022-07-26T04:11:32.559Z,17.52
2022-07-26T04:13:58.834Z,17.52
2022-07-26T04:16:25.346Z,17.53
2022-07-26T04:18:51.641Z,17.55
2022-07-26T04:21:18.065Z,17.55
2022-07-26T04:23:49.209Z,17.56
2022-07-26T04:26:17.555Z,17.56
2022-07-26T04:28:43.792Z,17.57
2022-07-26T04:31:10.178Z,17.57
2022-07-26T04:33:36.467Z,17.55
2022-07-26T04:36:02.830Z,17.56
2022-07-26T04:38:29.316Z,17.57
2022-07-26T04:40:55.596Z,17.59
2022-07-26T04:43:21.838Z,17.59
2022-07-26T04:45:48.311Z,17.60
2022-07-26T04:48:14.882Z,17.60
2022-07-26T04:50:41.166Z,17.61
2022-07-26T04:53:07.467Z,17.63
2022-07-26T04:55:33.854Z,17.66
2022-07-26T04:58:00.126Z,17.68
2022-07-26T05:00:26.407Z,17.71
2022-07-26T05:02:52.793Z,17.73
2022-07-26T05:05:19.082Z,17.77
2022-07-26T05:07:45.307Z,17.78
2022-07-26T05:10:11.567Z,17.80
2022-07-26T05:12:37.809Z,17.81
2022-07-26T05:15:04.486Z,17.86
2022-07-26T05:17:30.911Z,17.88
2022-07-26T05:20:00.010Z,17.84
2022-07-26T05:22:29.362Z,17.80
2022-07-26T05:24:55.680Z,17.82
2022-07-26T05:27:21.925Z,17.82
2022-07-26T05:29:48.153Z,17.77
2022-07-26T05:32:14.456Z,17.79
2022-07-26T05:34:40.717Z,17.78
2022-07-26T05:37:06.981Z,17.76
2022-07-26T05:39:33.273Z,17.75
2022-07-26T05:41:59.625Z,17.72
2022-07-26T05:44:26.021Z,17.73
2022-07-26T05:46:52.884Z,17.78
2022-07-26T05:49:19.158Z,17.81
2022-07-26T05:51:45.431Z,17.81
2022-07-26T05:54:12.184Z,17.86
2022-07-26T05:56:38.440Z,17.86
2022-07-26T05:59:05.130Z,17.91
2022-07-26T06:01:31.371Z,17.99
2022-07-26T06:03:59.237Z,18.01
2022-07-26T06:06:25.592Z,18.08
2022-07-26T06:08:51.827Z,18.13
2022-07-26T06:11:18.068Z,18.13
2022-07-26T06:13:44.364Z,18.14
2022-07-26T06:16:10.743Z,18.18
2022-07-26T06:18:36.969Z,18.24
2022-07-26T06:21:03.224Z,18.28
2022-07-26T06:23:34.532Z,18.34
2022-07-26T06:26:01.369Z,18.37
2022-07-26T06:28:27.606Z,18.41
2022-07-26T06:30:53.868Z,18.46
2022-07-26T06:33:20.125Z,18.54
2022-07-26T06:35:46.385Z,18.63
2022-07-26T06:38:12.605Z,18.65
2022-07-26T06:40:38.869Z,18.71
2022-07-26T06:43:05.154Z,18.80
2022-07-26T06:45:31.425Z,18.85
2022-07-26T06:47:57.682Z,18.93
2022-07-26T06:50:25.329Z,18.83
2022-07-26T06:52:52.025Z,18.86
2022-07-26T06:55:18.291Z,18.97
2022-07-26T06:57:48.858Z,19.02
2022-07-26T07:00:16.757Z,19.14
2022-07-26T07:02:42.990Z,19.20
2022-07-26T07:05:09.388Z,19.29
2022-07-26T07:07:35.680Z,19.30
2022-07-26T07:10:02.792Z,19.36
2022-07-26T07:12:29.047Z,19.30
2022-07-26T07:14:55.358Z,19.38
2022-07-26T07:17:21.614Z,19.42
2022-07-26T07:19:48.133Z,19.37
2022-07-26T07:22:14.459Z,19.43
2022-07-26T07:24:40.790Z,19.53
2022-07-26T07:27:07.144Z,19.55
2022-07-26T07:29:33.536Z,19.69
2022-07-26T07:31:59.916Z,19.84
2022-07-26T07:34:29.840Z,19.84
2022-07-26T07:36:56.145Z,19.96
2022-07-26T07:39:24.007Z,19.86
2022-07-26T07:41:53.711Z,19.85
2022-07-26T07:44:20.036Z,19.89
2022-07-26T07:46:46.502Z,20.03
2022-07-26T07:49:13.336Z,20.08
2022-07-26T07:51:39.864Z,19.97
2022-07-26T07:54:06.315Z,19.86
2022-07-26T07:56:32.740Z,19.88
2022-07-26T07:58:59.042Z,19.93
2022-07-26T08:01:25.406Z,19.91
2022-07-26T08:04:07.193Z,20.00
2022-07-26T08:06:33.684Z,20.06
2022-07-26T08:08:59.930Z,20.08
2022-07-26T08:11:26.598Z,20.18
2022-07-26T08:13:56.383Z,20.32
2022-07-26T08:16:23.027Z,20.37
2022-07-26T08:18:56.970Z,20.42
2022-07-26T08:21:23.889Z,20.54
2022-07-26T08:23:52.572Z,20.60
2022-07-26T08:26:18.976Z,20.75
2022-07-26T08:28:47.828Z,20.89
2022-07-26T08:31:14.417Z,21.02
2022-07-26T08:33:41.005Z,21.12
2022-07-26T08:36:12.278Z,21.13
2022-07-26T08:38:38.547Z,21.04
2022-07-26T08:41:04.811Z,21.12
2022-07-26T08:43:31.131Z,21.20
2022-07-26T08:45:59.106Z,21.27
2022-07-26T08:48:25.460Z,21.30
2022-07-26T08:50:51.771Z,21.32
2022-07-26T08:53:18.034Z,21.30
2022-07-26T08:56:05.959Z,21.19
2022-07-26T08:58:30.933Z,21.12
2022-07-26T09:00:57.235Z,21.15
2022-07-26T09:03:23.589Z,21.23
2022-07-26T09:05:50.155Z,21.18
2022-07-26T09:08:16.550Z,21.11
2022-07-26T09:10:43.024Z,21.06
2022-07-26T09:13:09.342Z,21.02
2022-07-26T09:15:35.646Z,21.07
2022-07-26T09:18:01.971Z,21.11
2022-07-26T09:20:29.121Z,21.13
2022-07-26T09:22:55.789Z,21.19
2022-07-26T09:25:22.181Z,21.32
2022-07-26T09:27:48.460Z,21.44
2022-07-26T09:30:14.863Z,21.53
2022-07-26T09:32:41.466Z,21.55
2022-07-26T09:35:24.106Z,21.53
2022-07-26T09:37:54.071Z,21.53
2022-07-26T09:40:20.338Z,21.54
2022-07-26T09:42:46.888Z,21.48
2022-07-26T09:45:13.231Z,21.48
2022-07-26T09:47:39.710Z,21.47
2022-07-26T09:50:10.851Z,21.41
2022-07-26T09:52:37.781Z,21.38
2022-07-26T09:55:04.091Z,21.36
2022-07-26T09:57:30.364Z,21.38
2022-07-26T09:59:56.593Z,21.40
2022-07-26T10:02:22.896Z,21.46
2022-07-26T10:04:49.339Z,21.51
2022-07-26T10:07:15.956Z,21.61
2022-07-26T10:09:42.378Z,21.77
2022-07-26T10:12:08.714Z,22.04
2022-07-26T10:14:35.052Z,22.24
2022-07-26T10:17:01.625Z,22.39
2022-07-26T10:19:28.217Z,22.54
2022-07-26T10:21:57.834Z,22.62
2022-07-26T10:24:24.162Z,22.56
2022-07-26T10:26:50.520Z,22.58
2022-07-26T10:29:18.804Z,22.57
2022-07-26T10:31:45.141Z,22.60
2022-07-26T10:34:12.922Z,22.51
2022-07-26T10:36:39.633Z,22.47
2022-07-26T10:39:06.055Z,22.45
2022-07-26T10:41:32.469Z,22.51
2022-07-26T10:43:58.800Z,22.46
2022-07-26T10:46:25.157Z,22.43
2022-07-26T10:48:51.631Z,22.45
2022-07-26T10:51:17.924Z,22.39
2022-07-26T10:53:44.250Z,22.34
2022-07-26T10:56:10.668Z,22.32
2022-07-26T10:58:36.897Z,22.43
2022-07-26T11:01:03.151Z,22.38
2022-07-26T11:03:29.401Z,22.31
2022-07-26T11:05:55.798Z,22.29
2022-07-26T11:08:22.236Z,22.34
2022-07-26T11:10:48.543Z,22.31
2022-07-26T11:13:14.942Z,22.26
2022-07-26T11:15:41.521Z,22.41
2022-07-26T11:18:08.027Z,22.47
2022-07-26T11:20:34.284Z,22.53
2022-07-26T11:23:00.800Z,22.53
2022-07-26T11:25:27.093Z,22.57
2022-07-26T11:27:53.601Z,22.47
2022-07-26T11:30:19.887Z,22.48
2022-07-26T11:32:46.177Z,22.45
2022-07-26T11:35:13.941Z,22.58
2022-07-26T11:37:40.187Z,22.78
2022-07-26T11:40:06.532Z,22.93
2022-07-26T11:42:32.820Z,23.08
2022-07-26T11:44:59.104Z,23.06
2022-07-26T11:47:26.633Z,23.03
2022-07-26T11:52:40.032Z,23.04
2022-07-26T11:55:06.325Z,23.04
2022-07-26T11:57:33.040Z,22.93
2022-07-26T11:59:59.423Z,22.94
2022-07-26T12:02:25.901Z,22.94
2022-07-26T12:04:52.266Z,22.90
2022-07-26T12:07:18.691Z,22.86
2022-07-26T12:09:44.941Z,22.87
2022-07-26T12:12:11.209Z,22.85
2022-07-26T12:14:37.468Z,22.81
2022-07-26T12:17:03.789Z,22.74
2022-07-26T12:19:30.240Z,22.75
2022-07-26T12:21:56.582Z,22.72
2022-07-26T12:24:23.030Z,22.64
2022-07-26T12:26:49.383Z,22.59
2022-07-26T12:29:15.609Z,22.55
2022-07-26T12:31:42.326Z,22.33
2022-07-26T12:34:09.236Z,21.64
2022-07-26T12:36:35.856Z,21.06
2022-07-26T12:39:02.331Z,20.04
2022-07-26T12:41:28.654Z,19.33
2022-07-26T12:43:55.059Z,18.91
2022-07-26T12:46:21.612Z,18.61
2022-07-26T12:48:48.158Z,18.50
2022-07-26T12:51:14.479Z,18.33
2022-07-26T12:53:40.743Z,18.20
2022-07-26T12:56:07.113Z,18.07
2022-07-26T12:58:33.605Z,17.88
2022-07-26T13:00:59.934Z,17.75
2022-07-26T13:03:26.232Z,17.66
2022-07-26T13:05:52.571Z,17.66
2022-07-26T13:08:19.022Z,17.72
2022-07-26T13:10:45.296Z,17.83
2022-07-26T13:13:11.544Z,17.95
2022-07-26T13:15:38.151Z,18.09
2022-07-26T13:18:04.577Z,18.12
2022-07-26T13:20:30.963Z,18.21
2022-07-26T13:22:57.244Z,18.29
2022-07-26T13:25:24.135Z,18.32
2022-07-26T13:27:52.334Z,18.23
2022-07-26T13:30:19.327Z,18.12
2022-07-26T13:32:45.721Z,18.16
2022-07-26T13:35:12.018Z,18.13
2022-07-26T13:37:38.541Z,18.15
2022-07-26T13:40:04.837Z,18.18
2022-07-26T13:42:31.116Z,18.01
2022-07-26T13:44:57.346Z,18.03
2022-07-26T13:47:23.718Z,18.01
2022-07-26T13:49:49.995Z,18.02
2022-07-26T13:52:17.002Z,18.02
2022-07-26T13:54:43.468Z,18.07
2022-07-26T13:57:09.825Z,18.07
2022-07-26T13:59:36.117Z,18.10
2022-07-26T14:02:02.539Z,18.13
2022-07-26T14:04:29.174Z,18.07
2022-07-26T14:06:55.509Z,18.20
2022-07-26T14:09:21.760Z,18.32
2022-07-26T14:11:47.998Z,18.44
2022-07-26T14:14:14.653Z,18.64
2022-07-26T14:16:41.244Z,18.80
2022-07-26T14:19:07.691Z,18.88
2022-07-26T14:21:38.679Z,18.94
2022-07-26T14:24:14.152Z,18.97
2022-07-26T14:26:42.752Z,18.89
2022-07-26T14:29:09.117Z,18.93
2022-07-26T14:31:35.529Z,18.96
2022-07-26T14:34:01.887Z,18.74
2022-07-26T14:36:28.151Z,18.81
2022-07-26T14:38:54.509Z,18.82
2022-07-26T14:41:20.733Z,18.79
2022-07-26T14:43:51.070Z,18.85
2022-07-26T14:46:20.581Z,18.91
2022-07-26T14:48:54.612Z,18.91
2022-07-26T14:51:21.257Z,18.93
2022-07-26T14:53:47.600Z,18.95
2022-07-26T14:56:13.857Z,19.04
2022-07-26T14:58:40.250Z,19.11
2022-07-26T15:01:06.663Z,19.16
2022-07-26T15:03:33.098Z,19.24
2022-07-26T15:05:59.312Z,19.31
2022-07-26T15:08:25.622Z,19.28
2022-07-26T15:10:51.900Z,19.28
2022-07-26T15:13:18.326Z,19.34
2022-07-26T15:15:44.613Z,19.35
2022-07-26T15:18:10.905Z,19.48
2022-07-26T15:20:37.208Z,19.63
2022-07-26T15:23:03.484Z,19.70
2022-07-26T15:25:29.724Z,19.96
2022-07-26T15:27:55.982Z,20.15
2022-07-26T15:30:22.220Z,20.50
2022-07-26T15:32:51.804Z,20.65
2022-07-26T15:35:18.187Z,20.73
2022-07-26T15:37:44.689Z,20.66
2022-07-26T15:40:11.140Z,20.53
2022-07-26T15:42:37.451Z,20.41
2022-07-26T15:45:06.977Z,20.52
2022-07-26T15:50:22.413Z,21.33
2022-07-26T15:52:48.712Z,21.73
2022-07-26T15:55:15.023Z,21.89
2022-07-26T15:57:41.244Z,21.83
2022-07-26T16:00:11.507Z,21.57
2022-07-26T16:02:38.318Z,21.59
2022-07-26T16:05:04.641Z,21.54
2022-07-26T16:07:31.070Z,21.43
2022-07-26T16:09:57.412Z,21.29
2022-07-26T16:12:23.664Z,21.16
2022-07-26T16:14:50.018Z,21.19
2022-07-26T16:17:16.314Z,21.18
2022-07-26T16:19:42.640Z,21.19
2022-07-26T16:22:09.083Z,21.19
2022-07-26T16:24:35.821Z,21.35
2022-07-26T16:27:02.164Z,21.42
2022-07-26T16:29:28.509Z,21.19
2022-07-26T16:31:54.838Z,21.01
2022-07-26T16:34:21.222Z,20.94
2022-07-26T16:36:47.518Z,20.90
2022-07-26T16:39:14.281Z,20.84
2022-07-26T16:41:41.116Z,20.75
2022-07-26T16:44:07.407Z,20.67
2022-07-26T16:46:33.875Z,20.64
2022-07-26T16:49:00.246Z,20.54
2022-07-26T16:51:26.795Z,20.53
2022-07-26T16:53:53.124Z,20.52
2022-07-26T16:56:19.573Z,20.49
2022-07-26T16:58:45.880Z,20.46
2022-07-26T17:01:12.180Z,20.46
2022-07-26T17:03:38.480Z,20.48
2022-07-26T17:06:06.640Z,20.46
2022-07-26T17:08:33.185Z,20.45
2022-07-26T17:10:59.592Z,20.59
2022-07-26T17:13:26.066Z,20.66
2022-07-26T17:15:52.343Z,20.74
2022-07-26T17:18:18.818Z,20.73
2022-07-26T17:20:45.295Z,20.72
2022-07-26T17:23:11.605Z,20.72
2022-07-26T17:25:37.883Z,20.70
2022-07-26T17:28:04.257Z,20.84
2022-07-26T17:30:30.693Z,21.08
2022-07-26T17:32:57.180Z,21.35
2022-07-26T17:35:23.498Z,21.48
2022-07-26T17:37:49.792Z,21.72
2022-07-26T17:40:16.402Z,21.92
2022-07-26T17:42:42.854Z,22.11
2022-07-26T17:45:09.218Z,22.22
2022-07-26T17:47:35.526Z,22.13
2022-07-26T17:50:26.387Z,21.92
2022-07-26T17:52:48.193Z,21.74
2022-07-26T17:55:14.458Z,21.63
2022-07-26T17:57:40.948Z,21.48
2022-07-26T18:00:07.279Z,21.29
2022-07-26T18:02:33.567Z,21.23
2022-07-26T18:04:59.902Z,21.22
2022-07-26T18:07:26.337Z,21.17
2022-07-26T18:09:52.804Z,21.10
2022-07-26T18:12:19.300Z,21.15
2022-07-26T18:14:45.598Z,21.10
2022-07-26T18:17:11.897Z,21.05
2022-07-26T18:19:38.275Z,21.05
2022-07-26T18:22:06.233Z,21.00
2022-07-26T18:24:32.767Z,20.85
2022-07-26T18:26:59.038Z,20.70
2022-07-26T18:29:25.356Z,20.59
2022-07-26T18:31:51.749Z,20.42
2022-07-26T18:34:18.097Z,20.29
2022-07-26T18:36:44.336Z,20.16
2022-07-26T18:39:10.922Z,20.08
2022-07-26T18:41:37.603Z,19.98
2022-07-26T18:44:03.999Z,19.93
2022-07-26T18:46:30.263Z,19.87
2022-07-26T18:48:56.832Z,19.81
2022-07-26T18:51:23.586Z,19.75
2022-07-26T18:53:53.135Z,19.68
2022-07-26T18:56:19.373Z,19.60
2022-07-26T18:58:45.712Z,19.52
2022-07-26T19:01:12.059Z,19.47
2022-07-26T19:03:38.504Z,19.39
2022-07-26T19:06:04.790Z,19.32
2022-07-26T19:08:31.094Z,19.27
2022-07-26T19:10:57.318Z,19.23
2022-07-26T19:13:23.586Z,19.16
2022-07-26T19:15:49.846Z,19.12
2022-07-26T19:18:16.165Z,19.06
2022-07-26T19:20:42.466Z,19.03
2022-07-26T19:23:11.075Z,18.97
2022-07-26T19:25:37.380Z,18.93
2022-07-26T19:28:03.684Z,18.87
2022-07-26T19:30:30.002Z,18.81
2022-07-26T19:32:56.431Z,18.78
2022-07-26T19:35:22.655Z,18.74
2022-07-26T19:37:49.010Z,18.72
2022-07-26T19:40:15.232Z,18.67
2022-07-26T19:42:41.524Z,18.64
2022-07-26T19:45:07.796Z,18.61
2022-07-26T19:47:34.026Z,18.58
2022-07-26T19:50:00.277Z,18.54
2022-07-26T19:52:26.547Z,18.49
2022-07-26T19:54:52.789Z,18.45
2022-07-26T19:57:19.046Z,18.41
2022-07-26T19:59:45.343Z,18.38
2022-07-26T20:02:11.727Z,18.34
2022-07-26T20:04:40.714Z,18.29
2022-07-26T20:07:09.146Z,18.24
2022-07-26T20:09:35.387Z,18.22
2022-07-26T20:12:01.649Z,18.17
2022-07-26T20:14:27.930Z,18.12
2022-07-26T20:16:56.243Z,18.06
2022-07-26T20:19:22.803Z,18.02
2022-07-26T20:21:49.007Z,17.97
2022-07-26T20:24:15.241Z,17.92
2022-07-26T20:26:41.443Z,17.88
2022-07-26T20:29:07.799Z,17.86
2022-07-26T20:31:34.114Z,17.82
2022-07-26T20:34:00.352Z,17.78
2022-07-26T20:36:26.576Z,17.79
2022-07-26T20:38:52.841Z,17.76
2022-07-26T20:41:19.074Z,17.74
2022-07-26T20:43:47.145Z,17.70
2022-07-26T20:46:14.128Z,17.66
2022-07-26T20:48:40.444Z,17.63
2022-07-26T20:51:06.691Z,17.60
2022-07-26T20:53:39.839Z,17.58
2022-07-26T20:56:06.084Z,17.54
2022-07-26T20:58:32.381Z,17.50
2022-07-26T21:00:58.671Z,17.46
2022-07-26T21:03:24.960Z,17.44
2022-07-26T21:05:51.177Z,17.43
2022-07-26T21:08:17.480Z,17.42
2022-07-26T21:10:43.688Z,17.36
2022-07-26T21:13:09.961Z,17.33
2022-07-26T21:15:36.180Z,17.30
2022-07-26T21:18:02.419Z,17.27
2022-07-26T21:20:30.225Z,17.23
2022-07-26T21:23:08.199Z,17.19
2022-07-26T21:25:39.285Z,17.16
2022-07-26T21:28:05.510Z,17.12
2022-07-26T21:30:31.748Z,17.09
2022-07-26T21:32:57.968Z,17.08
2022-07-26T21:35:24.203Z,17.04
2022-07-26T21:37:50.426Z,17.00
2022-07-26T21:40:16.662Z,16.98
2022-07-26T21:42:42.931Z,16.97
2022-07-26T21:45:09.177Z,16.96
2022-07-26T21:47:35.392Z,16.95
2022-07-26T21:50:01.661Z,16.94
2022-07-26T21:52:27.862Z,16.97
2022-07-26T21:54:54.096Z,17.01
2022-07-26T21:57:20.311Z,17.01
2022-07-26T21:59:46.558Z,17.03
2022-07-26T22:02:12.805Z,17.02
2022-07-26T22:04:39.334Z,17.01
2022-07-26T22:07:07.046Z,16.99
2022-07-26T22:09:33.372Z,16.98
2022-07-26T22:11:59.581Z,16.98
2022-07-26T22:14:25.812Z,16.94
2022-07-26T22:16:52.103Z,16.94
2022-07-26T22:19:18.421Z,16.92
2022-07-26T22:21:44.640Z,16.90
2022-07-26T22:24:10.878Z,16.88
2022-07-26T22:26:37.110Z,16.84
2022-07-26T22:29:03.374Z,16.83
2022-07-26T22:31:29.635Z,16.80
2022-07-26T22:33:55.966Z,16.77
2022-07-26T22:36:22.181Z,16.75
2022-07-26T22:38:48.432Z,16.71
2022-07-26T22:41:14.650Z,16.67
2022-07-26T22:43:40.913Z,16.66
2022-07-26T22:46:07.164Z,16.63
2022-07-26T22:48:37.915Z,16.61
2022-07-26T22:51:04.503Z,16.54
2022-07-26T22:53:30.751Z,16.52
2022-07-26T22:55:56.985Z,16.49
2022-07-26T22:58:23.249Z,16.46
2022-07-26T23:00:49.502Z,16.43
2022-07-26T23:03:19.763Z,16.40
2022-07-26T23:05:47.637Z,16.39
2022-07-26T23:08:44.190Z,16.36
2022-07-26T23:11:00.307Z,16.32
2022-07-26T23:13:26.687Z,16.32
2022-07-26T23:15:55.650Z,16.31
2022-07-26T23:18:26.124Z,16.28
2022-07-26T23:20:52.374Z,16.24
2022-07-26T23:23:18.604Z,16.25
2022-07-26T23:25:44.852Z,16.23
2022-07-26T23:28:36.097Z,16.18
2022-07-26T23:31:00.162Z,16.15
2022-07-26T23:33:52.667Z,16.10
2022-07-26T23:36:12.655Z,16.09
2022-07-26T23:38:38.901Z,16.06
2022-07-26T23:41:05.116Z,16.03
2022-07-26T23:43:31.340Z,15.95
2022-07-26T23:45:57.553Z,15.88
2022-07-26T23:48:23.799Z,15.83
2022-07-26T23:50:50.030Z,15.81
2022-07-26T23:53:16.261Z,15.80
2022-07-26T23:55:42.473Z,15.77
2022-07-26T23:58:15.543Z,15.76
